Dahlonega, GA

3:12 PM EST on January 31, 2015 (GMT -0500)
Esborn Road | Change Station
CLOSE
Current Station
Personal Weather Station
Location: Dahlonega, GA
Elevation: 1425 ft
Nearby Weather Stations

Elev 1425 ft 34.57 °N, 83.94 °W | Updated 43 seconds ago

Partly Cloudy
Partly Cloudy
51.3 °F
Feels Like 51.3 °F
N
4.0
Wind Variable Wind from SE
Gusts 8.0 mph

Today
High -- | Low -- °F
--% Chance of Precip.
Yesterday
High -- | Low -- °F
Precip. -- in
7:34 AM 6:04 PM
Waxing Gibbous, 91% visible
Pressure 30.31 in
Visibility 10.0 miles
Clouds Clear
Dew Point 14 °F
Humidity 22%
Rainfall 0.00 in
Snow Depth Not available.
UV 3 out of 12
Pollen 3.20 out of 12
Air Quality Not available.
Flu Activity Not available.
METAR KGVL 311953Z AUTO 25005KT 10SM CLR 09/M09 A3030 RMK AO2 SLP264 T00941094

More Conditions Fewer Conditions

Pressure 30.31 in
Visibility 10.0 miles
Clouds Clear
Dew Point 14 °F
Humidity 22%
Rainfall 0.00 in
Snow Depth Not available.
UV 3 out of 12
Pollen 3.20 out of 12
Air Quality Not available.
Flu Activity Not available.
METAR KGVL 311953Z AUTO 25005KT 10SM CLR 09/M09 A3030 RMK AO2 SLP264 T00941094

More Conditions Fewer Conditions

10-Day Weather Forecast

Almanac

Astronomy

Jan. 31, 2015 Rise Set
Actual Time
Civil Twilight
Nautical Twilight
Astronomical Twilight
Moon
Length of Visible Light
Length of Day
Tomorrow will be .
, % of the Moon is Illuminated

Today's Extremes

State Highs State Lows

Community

WunderPhotos

Upload Photos

1,792,173 photos uploaded!

WunderBlogs® & News

Nearby

Air Quality

  Air Quality AQ Index Pollutant
Not available.

Snow Depth

Station Depth Elevation

Earthquake Activity

City Distance Mag. Time & Date
Minimum magnitude displayed is 2.5.

Coastal Water Temperatures

Place Temperature

Nearby Weather Stations